Time;durP1;ratioP1;P1;durP2;ratioP2;P2;SDS_P1;SDS_P2;PMS_P1;PMS_P2;Temp;Humidity;BMP_temperature;BMP_pressure;BME280_temperature;BME280_humidity;BME280_pressure;Samples;Min_cycle;Max_cycle;Signal;HPM_P1;HPM_P2
2022/05/07 00:00:52;;;;;;;7.17;6.20;;;;;;;;;;5042925;28;20553;-78
2022/05/07 00:07:11;;;;;;;8.20;7.33;;;;;;;;;;5046642;28;20545;-78
2022/05/07 00:09:46;;;;;;;7.57;6.00;;;;;;;;;;5048311;28;20533;-78
2022/05/07 00:12:21;;;;;;;7.30;6.10;;;;;;;;;;5046953;28;20537;-78
2022/05/07 00:14:58;;;;;;;6.83;6.03;;;;;;;;;;5046996;28;20453;-78
2022/05/07 00:20:28;;;;;;;6.90;6.00;;;;;;;;;;5039134;28;20541;-78
2022/05/07 00:23:04;;;;;;;6.50;5.80;;;;;;;;;;5045965;28;20530;-78
2022/05/07 00:25:39;;;;;;;6.97;6.23;;;;;;;;;;5046116;28;20541;-78
2022/05/07 00:28:14;;;;;;;12.23;6.03;;;;;;;;;;5045499;28;20887;-78
2022/05/07 00:30:51;;;;;;;6.93;6.00;;;;;;;;;;5040220;28;20450;-78
2022/05/07 00:33:28;;;;;;;7.80;6.90;;;;;;;;;;5045433;28;20458;-78
2022/05/07 00:36:04;;;;;;;8.43;7.63;;;;;;;;;;5045038;28;20470;-78
2022/05/07 00:38:40;;;;;;;10.27;8.13;;;;;;;;;;5046422;28;20475;-78
2022/05/07 00:41:15;;;;;;;15.50;10.57;;;;;;;;;;5041343;28;20563;-78
2022/05/07 00:43:50;;;;;;;9.07;8.10;;;;;;;;;;5025612;28;20451;-78
2022/05/07 00:46:29;;;;;;;9.10;8.03;;;;;;;;;;5027996;28;20928;-78
2022/05/07 00:49:05;;;;;;;8.60;7.70;;;;;;;;;;5039651;28;20945;-78
2022/05/07 00:51:44;;;;;;;10.40;9.40;;;;;;;;;;5031749;28;20549;-78
2022/05/07 00:54:21;;;;;;;12.20;7.70;;;;;;;;;;5030854;28;20438;-78
2022/05/07 00:56:56;;;;;;;9.50;8.53;;;;;;;;;;5029380;28;20474;-78
2022/05/07 00:59:32;;;;;;;9.03;8.13;;;;;;;;;;5026434;28;20533;-78
2022/05/07 01:02:09;;;;;;;9.83;7.80;;;;;;;;;;5029714;28;20450;-78
2022/05/07 01:04:44;;;;;;;8.73;7.70;;;;;;;;;;5046208;28;20442;-78
2022/05/07 01:07:20;;;;;;;10.23;8.83;;;;;;;;;;5026337;28;20518;-78
2022/05/07 01:09:56;;;;;;;11.70;10.50;;;;;;;;;;5025507;28;20451;-78
2022/05/07 01:12:32;;;;;;;11.83;9.30;;;;;;;;;;5022494;28;20806;-78
2022/05/07 01:15:07;;;;;;;12.20;9.07;;;;;;;;;;5029427;28;20539;-78
2022/05/07 01:17:46;;;;;;;8.60;7.50;;;;;;;;;;5040044;28;20558;-78
2022/05/07 01:20:23;;;;;;;11.03;9.67;;;;;;;;;;5042294;28;21848;-78
2022/05/07 01:23:00;;;;;;;10.93;9.00;;;;;;;;;;5039432;28;20537;-78
2022/05/07 01:25:37;;;;;;;10.30;8.60;;;;;;;;;;5039898;28;20450;-78
2022/05/07 01:28:13;;;;;;;9.60;8.60;;;;;;;;;;5041396;28;20447;-78
2022/05/07 01:30:50;;;;;;;9.60;8.60;;;;;;;;;;5044740;28;20799;-78
2022/05/07 01:33:28;;;;;;;8.90;8.00;;;;;;;;;;5046398;28;20932;-78
2022/05/07 01:36:19;;;;;;;11.17;9.17;;;;;;;;;;5041628;28;20478;-78
2022/05/07 01:39:00;;;;;;;10.00;8.23;;;;;;;;;;5057497;28;20958;-78
2022/05/07 01:41:36;;;;;;;9.10;8.20;;;;;;;;;;5020320;28;20455;-78
2022/05/07 01:44:12;;;;;;;16.70;8.47;;;;;;;;;;5046724;28;20476;-78
2022/05/07 01:49:44;;;;;;;9.10;7.60;;;;;;;;;;5041199;28;20447;-78
2022/05/07 01:52:20;;;;;;;9.10;8.20;;;;;;;;;;5033498;28;20870;-78
2022/05/07 01:54:57;;;;;;;10.27;7.83;;;;;;;;;;5028832;28;20443;-78
2022/05/07 01:57:34;;;;;;;12.20;8.30;;;;;;;;;;5047670;28;20471;-78
2022/05/07 02:00:13;;;;;;;10.10;7.63;;;;;;;;;;5048239;28;20482;-78
2022/05/07 02:02:48;;;;;;;10.27;8.10;;;;;;;;;;5042463;28;20533;-78
2022/05/07 02:05:30;;;;;;;9.27;8.30;;;;;;;;;;5045295;28;20448;-78
2022/05/07 02:08:05;;;;;;;9.67;8.10;;;;;;;;;;5048990;28;20430;-78
2022/05/07 02:10:43;;;;;;;9.53;7.43;;;;;;;;;;5049538;28;20454;-78
2022/05/07 02:13:20;;;;;;;9.53;6.90;;;;;;;;;;5031210;28;20799;-78
2022/05/07 02:15:55;;;;;;;8.17;7.37;;;;;;;;;;5025349;28;20462;-78
2022/05/07 02:18:31;;;;;;;7.90;6.90;;;;;;;;;;5031245;28;20446;-78
2022/05/07 02:21:06;;;;;;;13.60;7.43;;;;;;;;;;5031756;28;20438;-78
2022/05/07 02:23:42;;;;;;;8.63;7.00;;;;;;;;;;5034025;28;20484;-78
2022/05/07 02:26:19;;;;;;;10.23;8.80;;;;;;;;;;5026187;28;20455;-78
2022/05/07 02:28:56;;;;;;;11.63;9.50;;;;;;;;;;5045662;28;20439;-78
2022/05/07 02:31:31;;;;;;;10.93;9.70;;;;;;;;;;5028052;28;20450;-78
2022/05/07 02:34:07;;;;;;;9.27;8.37;;;;;;;;;;5033007;28;20430;-78
2022/05/07 02:36:43;;;;;;;11.27;9.30;;;;;;;;;;5031385;28;20494;-78
2022/05/07 02:39:19;;;;;;;9.60;8.60;;;;;;;;;;5036119;28;20514;-78
2022/05/07 02:44:52;;;;;;;11.60;9.60;;;;;;;;;;5044326;28;20452;-78
2022/05/07 02:47:29;;;;;;;15.70;9.50;;;;;;;;;;5026475;28;20501;-78
2022/05/07 02:50:06;;;;;;;10.43;8.70;;;;;;;;;;5029269;28;20451;-78
2022/05/07 02:52:42;;;;;;;10.07;9.07;;;;;;;;;;5010983;28;20443;-78
2022/05/07 02:55:19;;;;;;;10.10;8.47;;;;;;;;;;5024545;28;20460;-78
2022/05/07 02:58:01;;;;;;;10.67;9.40;;;;;;;;;;5023553;28;20949;-78
2022/05/07 03:00:36;;;;;;;11.13;8.80;;;;;;;;;;5014583;28;20447;-78
2022/05/07 03:03:12;;;;;;;10.50;8.23;;;;;;;;;;5029348;28;20439;-78
2022/05/07 03:05:48;;;;;;;12.73;8.60;;;;;;;;;;5044651;28;20452;-78
2022/05/07 03:08:23;;;;;;;11.30;10.10;;;;;;;;;;5031919;28;20536;-78
2022/05/07 03:10:59;;;;;;;10.23;8.93;;;;;;;;;;5046522;28;20447;-78
2022/05/07 03:13:35;;;;;;;11.20;9.40;;;;;;;;;;5016825;28;20902;-78
2022/05/07 03:16:13;;;;;;;11.40;9.30;;;;;;;;;;5029541;28;20459;-78
2022/05/07 03:18:49;;;;;;;14.87;11.17;;;;;;;;;;5025355;28;21054;-78
2022/05/07 03:21:25;;;;;;;11.40;10.20;;;;;;;;;;5029040;28;20448;-78
2022/05/07 03:24:03;;;;;;;11.77;10.40;;;;;;;;;;5041906;28;20542;-78
2022/05/07 03:26:38;;;;;;;15.40;10.47;;;;;;;;;;5028694;28;20962;-78
2022/05/07 03:29:15;;;;;;;12.53;11.23;;;;;;;;;;5042152;28;20550;-78
2022/05/07 03:31:56;;;;;;;12.90;11.10;;;;;;;;;;5011725;28;20466;-78
2022/05/07 03:34:31;;;;;;;13.33;11.07;;;;;;;;;;5013435;28;20868;-78
2022/05/07 03:37:07;;;;;;;12.07;10.23;;;;;;;;;;5027950;28;20476;-78
2022/05/07 03:39:43;;;;;;;15.80;12.87;;;;;;;;;;5044218;28;20459;-78
2022/05/07 03:42:19;;;;;;;13.37;11.57;;;;;;;;;;5011614;28;20467;-78
2022/05/07 03:44:57;;;;;;;13.17;11.43;;;;;;;;;;5011240;28;20444;-78
2022/05/07 03:47:33;;;;;;;14.67;13.00;;;;;;;;;;5020576;28;20462;-78
2022/05/07 03:50:09;;;;;;;15.73;14.03;;;;;;;;;;5028267;28;20459;-78
2022/05/07 03:55:41;;;;;;;16.70;13.67;;;;;;;;;;5010522;28;20448;-78
2022/05/07 03:58:18;;;;;;;16.97;14.90;;;;;;;;;;5028854;28;20479;-77
2022/05/07 04:00:55;;;;;;;16.27;14.60;;;;;;;;;;5007129;28;20851;-78
2022/05/07 04:03:32;;;;;;;18.00;16.10;;;;;;;;;;5029899;28;20455;-78
2022/05/07 04:06:08;;;;;;;20.10;16.33;;;;;;;;;;5043606;28;20451;-78
2022/05/07 04:08:45;;;;;;;15.27;13.40;;;;;;;;;;5026553;28;20538;-78
2022/05/07 04:11:22;;;;;;;18.67;14.43;;;;;;;;;;5028204;28;20828;-78
2022/05/07 04:13:59;;;;;;;16.30;14.60;;;;;;;;;;5014010;28;20440;-78
2022/05/07 04:16:37;;;;;;;15.63;13.93;;;;;;;;;;5011329;28;20440;-78
2022/05/07 04:19:17;;;;;;;18.27;13.43;;;;;;;;;;5008299;28;20491;-78
2022/05/07 04:21:55;;;;;;;18.50;16.37;;;;;;;;;;5014074;28;20554;-78
2022/05/07 04:24:36;;;;;;;18.43;15.97;;;;;;;;;;5009668;28;20447;-78
2022/05/07 04:27:12;;;;;;;16.90;15.20;;;;;;;;;;5029851;28;20947;-78
2022/05/07 04:29:49;;;;;;;16.10;14.37;;;;;;;;;;5029140;28;20443;-78
2022/05/07 04:32:31;;;;;;;16.03;14.33;;;;;;;;;;5013202;28;20942;-78
2022/05/07 04:35:09;;;;;;;18.80;14.97;;;;;;;;;;5011824;28;21206;-78
2022/05/07 04:37:46;;;;;;;17.20;14.10;;;;;;;;;;5027189;28;20459;-78
2022/05/07 04:40:23;;;;;;;18.27;14.70;;;;;;;;;;5055083;28;20479;-77
2022/05/07 04:42:59;;;;;;;14.63;13.10;;;;;;;;;;5027878;28;20454;-78
2022/05/07 04:45:35;;;;;;;16.77;14.43;;;;;;;;;;5024398;28;20514;-78
2022/05/07 04:48:18;;;;;;;15.67;14.07;;;;;;;;;;5038135;28;20439;-78
2022/05/07 04:50:54;;;;;;;14.80;13.20;;;;;;;;;;5040022;28;20871;-78
2022/05/07 04:53:40;;;;;;;14.13;12.43;;;;;;;;;;5028255;28;20479;-78
2022/05/07 04:56:29;;;;;;;14.90;13.20;;;;;;;;;;5045775;28;20537;-78
2022/05/07 04:59:10;;;;;;;14.50;12.60;;;;;;;;;;5040830;28;20447;-78
2022/05/07 05:01:54;;;;;;;14.30;12.17;;;;;;;;;;5030705;28;20458;-78
2022/05/07 05:04:33;;;;;;;13.17;10.33;;;;;;;;;;5020949;28;20454;-78
2022/05/07 05:07:10;;;;;;;13.10;11.03;;;;;;;;;;5022572;28;20463;-78
2022/05/07 05:09:49;;;;;;;12.50;10.50;;;;;;;;;;5024556;28;20520;-78
2022/05/07 05:12:30;;;;;;;13.00;11.60;;;;;;;;;;5040042;28;20782;-78
2022/05/07 05:15:08;;;;;;;14.37;11.67;;;;;;;;;;5030902;28;20450;-79
2022/05/07 05:18:19;;;;;;;14.00;11.90;;;;;;;;;;5025551;28;20811;-79
2022/05/07 05:20:58;;;;;;;13.87;12.33;;;;;;;;;;5040674;28;20854;-79
2022/05/07 05:23:40;;;;;;;14.83;13.23;;;;;;;;;;5034011;28;20451;-79
2022/05/07 05:26:15;;;;;;;13.97;12.50;;;;;;;;;;5048819;28;20840;-77
2022/05/07 05:28:57;;;;;;;16.00;12.80;;;;;;;;;;5026599;28;20438;-79
2022/05/07 05:31:33;;;;;;;15.73;13.70;;;;;;;;;;5027832;28;20794;-77
2022/05/07 05:34:16;;;;;;;14.30;12.90;;;;;;;;;;5034252;28;20542;-79
2022/05/07 05:37:22;;;;;;;14.10;12.70;;;;;;;;;;5031731;28;20450;-78
2022/05/07 05:39:59;;;;;;;14.10;12.30;;;;;;;;;;5033289;28;20470;-79
2022/05/07 05:42:37;;;;;;;14.07;12.63;;;;;;;;;;5030559;28;20855;-79
2022/05/07 05:45:12;;;;;;;14.47;13.07;;;;;;;;;;5049262;28;20450;-79
2022/05/07 05:47:51;;;;;;;16.70;14.80;;;;;;;;;;5043234;28;20450;-79
2022/05/07 05:50:30;;;;;;;16.20;14.60;;;;;;;;;;5030389;28;20450;-79
2022/05/07 05:53:06;;;;;;;15.13;13.63;;;;;;;;;;5029918;28;20450;-79
2022/05/07 05:55:43;;;;;;;16.63;14.93;;;;;;;;;;5030448;28;20450;-79
2022/05/07 05:58:19;;;;;;;17.10;14.47;;;;;;;;;;5032015;28;20474;-79
2022/05/07 06:00:56;;;;;;;15.17;13.63;;;;;;;;;;5034606;28;20458;-79
2022/05/07 06:03:32;;;;;;;14.90;13.40;;;;;;;;;;5049823;28;20435;-80
2022/05/07 06:06:07;;;;;;;15.37;13.90;;;;;;;;;;5032581;28;20443;-79
2022/05/07 06:08:43;;;;;;;16.47;14.87;;;;;;;;;;5043687;28;20792;-79
2022/05/07 06:11:20;;;;;;;15.03;13.50;;;;;;;;;;5030563;28;20446;-79
2022/05/07 06:13:55;;;;;;;13.93;12.67;;;;;;;;;;5033918;28;20478;-80
2022/05/07 06:16:31;;;;;;;14.80;13.30;;;;;;;;;;5028423;28;20462;-79
2022/05/07 06:19:10;;;;;;;14.80;13.30;;;;;;;;;;5031697;28;20459;-80
2022/05/07 06:21:47;;;;;;;14.30;12.80;;;;;;;;;;5032833;28;20801;-80
2022/05/07 06:27:32;;;;;;;13.23;11.93;;;;;;;;;;5046718;28;20493;-80
2022/05/07 06:30:14;;;;;;;12.80;11.60;;;;;;;;;;5028978;28;20464;-80
2022/05/07 06:32:56;;;;;;;13.13;11.50;;;;;;;;;;5026123;28;20494;-79
2022/05/07 06:35:38;;;;;;;13.23;11.73;;;;;;;;;;5030189;28;20451;-78
2022/05/07 06:38:20;;;;;;;11.20;10.10;;;;;;;;;;5032737;28;20486;-80
2022/05/07 06:41:02;;;;;;;11.87;10.53;;;;;;;;;;5034358;28;20442;-80
2022/05/07 06:43:39;;;;;;;10.40;9.33;;;;;;;;;;5034951;28;20955;-80
2022/05/07 06:46:19;;;;;;;9.30;7.83;;;;;;;;;;5049038;28;20546;-80
2022/05/07 06:49:08;;;;;;;9.43;8.63;;;;;;;;;;5048115;28;20443;-80
2022/05/07 06:51:52;;;;;;;10.73;8.83;;;;;;;;;;5032618;28;20450;-79
2022/05/07 06:54:28;;;;;;;10.47;9.57;;;;;;;;;;5050929;28;20439;-79
2022/05/07 06:57:04;;;;;;;9.30;8.50;;;;;;;;;;5049498;28;20843;-78
2022/05/07 06:59:42;;;;;;;11.07;10.10;;;;;;;;;;5047581;28;20953;-78
2022/05/07 07:02:17;;;;;;;11.10;10.00;;;;;;;;;;5031099;28;20443;-78
2022/05/07 07:04:53;;;;;;;11.20;9.50;;;;;;;;;;5046419;28;20446;-78
2022/05/07 07:07:29;;;;;;;12.37;11.20;;;;;;;;;;5047904;28;20490;-79
2022/05/07 07:10:04;;;;;;;12.27;10.10;;;;;;;;;;5057852;28;20447;-79
2022/05/07 07:12:40;;;;;;;10.83;9.83;;;;;;;;;;5043663;28;20454;-79
2022/05/07 07:15:17;;;;;;;11.67;10.57;;;;;;;;;;5044860;28;20488;-79
2022/05/07 07:17:53;;;;;;;10.97;9.87;;;;;;;;;;5044165;28;20502;-79
2022/05/07 07:20:29;;;;;;;11.57;10.43;;;;;;;;;;5047501;28;20450;-79
2022/05/07 07:23:05;;;;;;;10.63;9.53;;;;;;;;;;5046162;28;20462;-79
2022/05/07 07:25:40;;;;;;;10.17;9.20;;;;;;;;;;5044989;28;20442;-79
2022/05/07 07:28:16;;;;;;;8.60;7.83;;;;;;;;;;5046438;28;20451;-79
2022/05/07 07:30:53;;;;;;;12.53;10.07;;;;;;;;;;5043496;28;20446;-79
2022/05/07 07:33:29;;;;;;;10.23;9.10;;;;;;;;;;5041918;28;20902;-79
2022/05/07 07:36:04;;;;;;;10.53;9.53;;;;;;;;;;5044740;28;20454;-79
2022/05/07 07:38:39;;;;;;;10.50;9.50;;;;;;;;;;5044094;28;20569;-79
2022/05/07 07:41:15;;;;;;;9.20;8.30;;;;;;;;;;5043646;28;20430;-79
2022/05/07 07:43:50;;;;;;;8.93;8.13;;;;;;;;;;5043527;28;20451;-79
2022/05/07 07:49:20;;;;;;;9.30;8.40;;;;;;;;;;5039722;28;20432;-79
2022/05/07 07:51:56;;;;;;;8.67;7.83;;;;;;;;;;5042224;28;20455;-79
2022/05/07 07:54:31;;;;;;;9.73;8.83;;;;;;;;;;5041585;28;20454;-79
2022/05/07 07:57:06;;;;;;;9.93;9.10;;;;;;;;;;5044776;28;20533;-79
2022/05/07 07:59:43;;;;;;;10.77;9.80;;;;;;;;;;5045495;28;20504;-79
2022/05/07 08:02:19;;;;;;;12.77;10.77;;;;;;;;;;5037855;28;20487;-79
2022/05/07 08:04:55;;;;;;;10.87;9.43;;;;;;;;;;5049349;28;20525;-79
2022/05/07 08:13:17;;;;;;;13.00;11.80;;;;;;;;;;5045839;28;20447;-79
2022/05/07 08:15:54;;;;;;;13.60;12.30;;;;;;;;;;5033134;28;20948;-79
2022/05/07 08:18:30;;;;;;;13.30;12.10;;;;;;;;;;5046727;28;20572;-79
2022/05/07 08:21:06;;;;;;;12.37;11.07;;;;;;;;;;5045794;28;20451;-79
2022/05/07 08:23:42;;;;;;;14.10;12.87;;;;;;;;;;5046699;28;20512;-79
2022/05/07 08:26:17;;;;;;;13.27;12.13;;;;;;;;;;5043955;28;20443;-79
2022/05/07 08:28:53;;;;;;;13.00;11.33;;;;;;;;;;5043143;28;20509;-79
2022/05/07 08:31:29;;;;;;;13.60;12.20;;;;;;;;;;5047921;28;20442;-79
2022/05/07 08:34:05;;;;;;;15.67;12.87;;;;;;;;;;5061235;28;20853;-79
2022/05/07 08:36:41;;;;;;;13.20;12.00;;;;;;;;;;5043664;28;20434;-79
2022/05/07 08:39:16;;;;;;;13.37;12.17;;;;;;;;;;5041943;28;20826;-79
2022/05/07 08:41:51;;;;;;;15.07;13.67;;;;;;;;;;5047183;28;20545;-79
2022/05/07 08:44:29;;;;;;;14.90;13.40;;;;;;;;;;5029807;28;20460;-79
2022/05/07 08:47:05;;;;;;;14.97;13.57;;;;;;;;;;5041516;28;20545;-79
2022/05/07 08:49:42;;;;;;;16.00;13.97;;;;;;;;;;5045145;28;20462;-79
2022/05/07 08:52:18;;;;;;;14.13;12.93;;;;;;;;;;5045957;28;20463;-79
2022/05/07 08:54:53;;;;;;;14.60;13.20;;;;;;;;;;5046552;28;20851;-79
2022/05/07 08:57:30;;;;;;;16.13;13.53;;;;;;;;;;5046462;28;20458;-79
2022/05/07 09:00:06;;;;;;;15.33;12.70;;;;;;;;;;5045002;28;20466;-79
2022/05/07 09:02:43;;;;;;;14.03;12.73;;;;;;;;;;5046375;28;20533;-79
2022/05/07 09:05:21;;;;;;;14.00;12.80;;;;;;;;;;5045485;28;20784;-79
2022/05/07 09:07:58;;;;;;;16.43;14.83;;;;;;;;;;5043578;28;20474;-79
2022/05/07 09:10:34;;;;;;;15.00;13.50;;;;;;;;;;5042927;28;20522;-79
2022/05/07 09:13:11;;;;;;;15.30;13.77;;;;;;;;;;5047326;28;20461;-79
2022/05/07 09:15:56;;;;;;;15.03;13.50;;;;;;;;;;5045103;28;20525;-79
2022/05/07 09:18:32;;;;;;;11.80;10.30;;;;;;;;;;5045676;28;21059;-79
2022/05/07 09:21:19;;;;;;;11.77;10.67;;;;;;;;;;5047784;28;20553;-78
2022/05/07 09:24:06;;;;;;;9.40;8.50;;;;;;;;;;5048450;28;20773;-79
2022/05/07 09:26:57;;;;;;;12.77;9.87;;;;;;;;;;5046226;28;20502;-78
2022/05/07 09:29:33;;;;;;;10.93;9.93;;;;;;;;;;5044390;28;20434;-79
2022/05/07 09:32:09;;;;;;;10.20;9.10;;;;;;;;;;5044231;28;20486;-78
2022/05/07 09:37:42;;;;;;;10.13;9.13;;;;;;;;;;5045802;28;20443;-78
2022/05/07 09:40:22;;;;;;;10.40;9.37;;;;;;;;;;5045043;28;20454;-78
2022/05/07 09:42:57;;;;;;;9.57;8.33;;;;;;;;;;5044770;28;20537;-79
2022/05/07 09:45:33;;;;;;;8.67;7.67;;;;;;;;;;5038213;28;20829;-79
2022/05/07 09:48:10;;;;;;;16.00;14.10;;;;;;;;;;5042733;28;20504;-79
2022/05/07 09:50:46;;;;;;;7.37;6.40;;;;;;;;;;5046491;28;20504;-79
2022/05/07 09:59:11;;;;;;;5.90;4.13;;;;;;;;;;5061318;28;20470;-78
2022/05/07 10:01:54;;;;;;;4.17;3.47;;;;;;;;;;5045353;28;20439;-78
2022/05/07 10:04:39;;;;;;;3.70;2.87;;;;;;;;;;5047223;28;20449;-79
2022/05/07 10:07:32;;;;;;;3.70;3.40;;;;;;;;;;5047099;28;20454;-78
2022/05/07 10:10:29;;;;;;;4.40;3.30;;;;;;;;;;5046783;28;20474;-78
2022/05/07 10:13:06;;;;;;;3.13;2.40;;;;;;;;;;5059127;28;20439;-78
2022/05/07 10:15:41;;;;;;;2.90;2.70;;;;;;;;;;5049792;28;20434;-78
2022/05/07 10:18:17;;;;;;;4.83;2.50;;;;;;;;;;5029095;28;20473;-78
2022/05/07 10:20:53;;;;;;;2.87;2.63;;;;;;;;;;5050028;28;20784;-78
2022/05/07 10:23:28;;;;;;;4.93;2.60;;;;;;;;;;5052417;28;20442;-78
2022/05/07 10:26:04;;;;;;;3.40;2.73;;;;;;;;;;5048126;28;20446;-78
2022/05/07 10:28:42;;;;;;;4.37;3.30;;;;;;;;;;5049633;28;20438;-77
2022/05/07 10:31:19;;;;;;;9.10;3.40;;;;;;;;;;5044709;28;20456;-78
2022/05/07 10:33:55;;;;;;;4.70;3.47;;;;;;;;;;5048281;28;20437;-77
2022/05/07 10:36:35;;;;;;;4.40;4.00;;;;;;;;;;5047697;28;20510;-77
2022/05/07 10:39:10;;;;;;;4.77;4.37;;;;;;;;;;5058033;28;20501;-77
2022/05/07 10:41:47;;;;;;;5.40;4.90;;;;;;;;;;5050226;28;20481;-77
2022/05/07 10:44:33;;;;;;;4.70;4.30;;;;;;;;;;5062815;28;20827;-77
2022/05/07 10:47:10;;;;;;;6.13;4.30;;;;;;;;;;5060919;28;20980;-77
2022/05/07 10:49:52;;;;;;;4.70;4.23;;;;;;;;;;5051523;28;20430;-77
2022/05/07 10:52:30;;;;;;;5.03;4.63;;;;;;;;;;5068248;28;20556;-77
2022/05/07 10:55:06;;;;;;;4.73;4.33;;;;;;;;;;5068528;28;20525;-77
2022/05/07 10:57:44;;;;;;;6.03;4.13;;;;;;;;;;5050591;28;20454;-77
2022/05/07 11:00:22;;;;;;;5.30;4.47;;;;;;;;;;5050924;28;20465;-77
2022/05/07 11:02:59;;;;;;;6.73;4.97;;;;;;;;;;5047785;28;20474;-77
2022/05/07 11:05:35;;;;;;;6.80;6.10;;;;;;;;;;5066865;28;20442;-78
2022/05/07 11:08:11;;;;;;;6.93;6.10;;;;;;;;;;5050154;28;20854;-77
2022/05/07 11:10:46;;;;;;;6.93;6.23;;;;;;;;;;5065946;28;20434;-77
2022/05/07 11:13:21;;;;;;;5.93;5.43;;;;;;;;;;5049048;28;20442;-77
2022/05/07 11:16:06;;;;;;;7.13;6.50;;;;;;;;;;5027733;28;20477;-77
2022/05/07 11:18:45;;;;;;;6.27;5.67;;;;;;;;;;5047739;28;20451;-77
2022/05/07 11:21:21;;;;;;;7.00;6.30;;;;;;;;;;5048693;28;20454;-77
2022/05/07 11:24:07;;;;;;;5.63;5.13;;;;;;;;;;5068106;28;20799;-77
2022/05/07 11:26:42;;;;;;;6.33;5.73;;;;;;;;;;5048915;28;20864;-78
2022/05/07 11:29:18;;;;;;;6.10;5.50;;;;;;;;;;5049525;28;20446;-78
2022/05/07 11:31:56;;;;;;;6.07;5.53;;;;;;;;;;5050681;28;20471;-78
2022/05/07 11:34:32;;;;;;;6.23;5.30;;;;;;;;;;5051150;28;20450;-78
2022/05/07 11:37:11;;;;;;;5.03;4.53;;;;;;;;;;5068859;28;20449;-78
2022/05/07 11:39:47;;;;;;;5.60;5.00;;;;;;;;;;5049714;28;20486;-78
2022/05/07 11:42:30;;;;;;;5.33;4.90;;;;;;;;;;5050879;28;20814;-77
2022/05/07 11:45:29;;;;;;;4.60;4.23;;;;;;;;;;5061568;28;20438;-77
2022/05/07 11:48:17;;;;;;;4.50;4.10;;;;;;;;;;5037761;28;20503;-77
2022/05/07 11:50:53;;;;;;;5.90;4.23;;;;;;;;;;5062720;28;20933;-77
2022/05/07 11:53:29;;;;;;;4.67;4.27;;;;;;;;;;5043906;28;20845;-77
2022/05/07 11:56:06;;;;;;;5.10;4.70;;;;;;;;;;5045930;28;20465;-77
2022/05/07 11:58:42;;;;;;;4.90;4.27;;;;;;;;;;5047232;28;20443;-77
2022/05/07 12:01:18;;;;;;;5.80;5.30;;;;;;;;;;5044115;28;20443;-76
2022/05/07 12:03:55;;;;;;;6.50;4.13;;;;;;;;;;5044020;28;20433;-77
2022/05/07 12:06:31;;;;;;;4.67;4.27;;;;;;;;;;5064958;28;20480;-77
2022/05/07 12:09:13;;;;;;;4.83;3.57;;;;;;;;;;5045710;28;20449;-77
2022/05/07 12:11:50;;;;;;;4.43;4.03;;;;;;;;;;5044761;28;20453;-77
2022/05/07 12:14:25;;;;;;;4.10;3.70;;;;;;;;;;5068071;28;20503;-77
2022/05/07 12:20:11;;;;;;;8.63;4.13;;;;;;;;;;4973549;28;20464;-77
2022/05/07 12:31:29;;;;;;;3.53;3.23;;;;;;;;;;5064357;28;20445;-77
2022/05/07 12:34:05;;;;;;;3.97;3.67;;;;;;;;;;5048593;28;20474;-77
2022/05/07 12:36:42;;;;;;;4.03;3.63;;;;;;;;;;5048627;28;20437;-78
2022/05/07 12:39:17;;;;;;;3.80;3.50;;;;;;;;;;5066382;28;20840;-78
2022/05/07 12:41:52;;;;;;;5.93;4.03;;;;;;;;;;5048699;28;20971;-77
2022/05/07 12:44:29;;;;;;;11.20;3.80;;;;;;;;;;5048512;28;20434;-77
2022/05/07 12:47:05;;;;;;;4.63;3.40;;;;;;;;;;5063808;28;20461;-77
2022/05/07 12:49:42;;;;;;;3.93;3.53;;;;;;;;;;5046508;28;20482;-77
2022/05/07 12:52:18;;;;;;;4.00;3.60;;;;;;;;;;5044975;28;20441;-77
2022/05/07 12:54:54;;;;;;;4.50;4.00;;;;;;;;;;5046215;28;20472;-77
2022/05/07 12:57:30;;;;;;;4.40;4.00;;;;;;;;;;5069371;28;20488;-77
2022/05/07 13:00:07;;;;;;;4.20;3.80;;;;;;;;;;5063148;28;20835;-77
2022/05/07 13:02:42;;;;;;;4.37;3.97;;;;;;;;;;5062413;28;20446;-77
2022/05/07 13:05:18;;;;;;;4.57;3.83;;;;;;;;;;5066229;28;20449;-77
2022/05/07 13:07:54;;;;;;;5.03;4.53;;;;;;;;;;5051829;28;20497;-77
2022/05/07 13:10:47;;;;;;;4.63;4.20;;;;;;;;;;5067742;28;20492;-77
2022/05/07 13:13:24;;;;;;;4.77;3.90;;;;;;;;;;5048013;28;20434;-77
2022/05/07 13:16:00;;;;;;;4.23;3.90;;;;;;;;;;5046573;28;20533;-77
2022/05/07 13:18:35;;;;;;;7.23;4.20;;;;;;;;;;5048148;28;20438;-77
2022/05/07 13:21:11;;;;;;;4.07;3.67;;;;;;;;;;5065192;28;20485;-77
2022/05/07 13:23:48;;;;;;;3.90;3.50;;;;;;;;;;5032834;28;20464;-77
2022/05/07 13:26:23;;;;;;;4.83;4.20;;;;;;;;;;5050130;28;20491;-77
2022/05/07 13:28:59;;;;;;;4.37;3.97;;;;;;;;;;5060211;28;20440;-77
2022/05/07 13:31:37;;;;;;;4.17;3.87;;;;;;;;;;5045429;28;20455;-77
2022/05/07 13:34:12;;;;;;;3.80;3.50;;;;;;;;;;5045979;28;20434;-77
2022/05/07 13:36:48;;;;;;;4.63;4.23;;;;;;;;;;5044539;28;20452;-77
2022/05/07 13:39:36;;;;;;;4.47;4.07;;;;;;;;;;5047354;28;20481;-77
2022/05/07 13:42:12;;;;;;;3.87;3.57;;;;;;;;;;5046339;28;20489;-77
2022/05/07 13:44:50;;;;;;;5.40;4.10;;;;;;;;;;5063762;28;20833;-77
2022/05/07 13:47:25;;;;;;;4.30;3.90;;;;;;;;;;5043344;28;20485;-77
2022/05/07 13:50:02;;;;;;;4.90;3.73;;;;;;;;;;5066416;28;20520;-77
2022/05/07 13:52:38;;;;;;;6.97;3.97;;;;;;;;;;5068884;28;20454;-77
2022/05/07 13:55:15;;;;;;;5.63;3.90;;;;;;;;;;5046328;28;20465;-77
2022/05/07 13:57:51;;;;;;;7.20;3.60;;;;;;;;;;5067107;28;20453;-77
2022/05/07 14:00:29;;;;;;;3.77;3.47;;;;;;;;;;5058567;28;20482;-77
2022/05/07 14:03:05;;;;;;;3.83;3.50;;;;;;;;;;5045392;28;20487;-77
2022/05/07 14:05:41;;;;;;;3.87;3.50;;;;;;;;;;5061879;28;20528;-78
2022/05/07 14:08:16;;;;;;;8.03;3.57;;;;;;;;;;5062124;28;20921;-77
2022/05/07 14:10:53;;;;;;;4.33;3.93;;;;;;;;;;5065134;28;20473;-77
2022/05/07 14:13:28;;;;;;;3.87;3.57;;;;;;;;;;5064272;28;20532;-77
2022/05/07 14:16:08;;;;;;;4.20;3.80;;;;;;;;;;5043954;28;20445;-77
2022/05/07 14:18:43;;;;;;;5.50;4.23;;;;;;;;;;5045918;28;20435;-77
2022/05/07 14:21:19;;;;;;;4.37;4.03;;;;;;;;;;5042322;28;20568;-77
2022/05/07 14:23:54;;;;;;;4.60;3.60;;;;;;;;;;5044471;28;20454;-77
2022/05/07 14:26:31;;;;;;;4.50;4.10;;;;;;;;;;5042995;28;20447;-77
2022/05/07 14:29:07;;;;;;;5.00;4.03;;;;;;;;;;5047178;28;20441;-77
2022/05/07 14:31:42;;;;;;;4.87;4.47;;;;;;;;;;5034321;28;20468;-77
2022/05/07 14:34:18;;;;;;;4.90;4.40;;;;;;;;;;5047257;28;20860;-77
2022/05/07 14:36:53;;;;;;;5.87;4.23;;;;;;;;;;5060940;28;20844;-77
2022/05/07 14:39:29;;;;;;;4.50;4.10;;;;;;;;;;5047192;28;20929;-77
2022/05/07 14:42:07;;;;;;;5.17;4.73;;;;;;;;;;5051588;28;20861;-76
2022/05/07 14:44:42;;;;;;;5.00;4.40;;;;;;;;;;5044655;28;20442;-76
2022/05/07 14:47:18;;;;;;;4.23;3.73;;;;;;;;;;5059076;28;20470;-77
2022/05/07 14:49:54;;;;;;;9.03;4.97;;;;;;;;;;5064346;28;21760;-77
2022/05/07 14:52:31;;;;;;;5.57;4.90;;;;;;;;;;5048720;28;20484;-77
2022/05/07 14:55:07;;;;;;;5.33;4.23;;;;;;;;;;5063616;28;20544;-77
2022/05/07 14:57:43;;;;;;;5.40;4.20;;;;;;;;;;5048302;28;20433;-77
2022/05/07 15:00:30;;;;;;;5.30;4.33;;;;;;;;;;5065390;28;20482;-77
2022/05/07 15:03:06;;;;;;;5.40;4.53;;;;;;;;;;5050028;28;20457;-77
2022/05/07 15:05:41;;;;;;;5.50;4.00;;;;;;;;;;5049516;28;20936;-77
2022/05/07 15:11:11;;;;;;;5.53;5.00;;;;;;;;;;5046145;28;20461;-78
2022/05/07 15:13:51;;;;;;;5.40;4.90;;;;;;;;;;5064265;28;20513;-78
2022/05/07 15:16:29;;;;;;;5.83;5.23;;;;;;;;;;5061809;28;20848;-76
2022/05/07 15:19:04;;;;;;;5.70;5.20;;;;;;;;;;5062607;28;20533;-78
2022/05/07 15:21:40;;;;;;;7.73;7.03;;;;;;;;;;5062970;28;20481;-78
2022/05/07 15:24:15;;;;;;;6.23;5.63;;;;;;;;;;5065501;28;20791;-78
2022/05/07 15:26:52;;;;;;;5.90;5.30;;;;;;;;;;5063284;28;20449;-78
2022/05/07 15:29:31;;;;;;;6.87;6.20;;;;;;;;;;5049978;28;20492;-77
2022/05/07 15:37:53;;;;;;;6.13;5.57;;;;;;;;;;5043455;28;20450;-77
2022/05/07 15:40:28;;;;;;;7.27;6.43;;;;;;;;;;5046658;28;20561;-78
2022/05/07 15:43:05;;;;;;;6.47;5.97;;;;;;;;;;5064334;28;20449;-77
2022/05/07 15:45:42;;;;;;;6.90;6.40;;;;;;;;;;5063994;28;20478;-77
2022/05/07 15:48:17;;;;;;;7.20;6.60;;;;;;;;;;5067409;28;20476;-77
2022/05/07 15:50:56;;;;;;;6.53;5.93;;;;;;;;;;5050113;28;20430;-77
2022/05/07 15:53:33;;;;;;;6.27;5.77;;;;;;;;;;5067909;28;20449;-77
2022/05/07 15:56:09;;;;;;;7.30;6.67;;;;;;;;;;5068729;28;20445;-77
2022/05/07 15:58:44;;;;;;;7.70;7.00;;;;;;;;;;5048440;28;20457;-77
2022/05/07 16:01:23;;;;;;;10.40;6.77;;;;;;;;;;5064960;28;20487;-77
2022/05/07 16:03:58;;;;;;;6.67;6.07;;;;;;;;;;5049237;28;20445;-77
2022/05/07 16:06:45;;;;;;;10.90;7.03;;;;;;;;;;5068184;28;20794;-77
2022/05/07 16:09:21;;;;;;;7.60;6.90;;;;;;;;;;5043027;28;20453;-77
2022/05/07 16:11:58;;;;;;;8.03;6.43;;;;;;;;;;5047138;28;20873;-77
2022/05/07 16:14:34;;;;;;;8.83;8.00;;;;;;;;;;5049194;28;20442;-78
2022/05/07 16:17:11;;;;;;;8.80;8.10;;;;;;;;;;5065556;28;20453;-77
2022/05/07 16:19:47;;;;;;;8.00;7.30;;;;;;;;;;5048969;28;20438;-77
2022/05/07 16:25:16;;;;;;;9.03;8.07;;;;;;;;;;5033459;28;20956;-77
2022/05/07 16:27:53;;;;;;;8.87;7.97;;;;;;;;;;5049682;28;20469;-77
2022/05/07 16:30:32;;;;;;;8.27;7.40;;;;;;;;;;5068078;28;20503;-77
2022/05/07 16:33:15;;;;;;;10.27;8.83;;;;;;;;;;5065426;28;20446;-76